createdAt,value
2019-01-24T00:00:44.485Z,27.97
2019-01-24T00:03:15.062Z,28.00
2019-01-24T00:05:44.761Z,29.67
2019-01-24T00:08:14.599Z,28.37
2019-01-24T00:10:44.502Z,29.00
2019-01-24T00:13:14.253Z,28.37
2019-01-24T00:15:43.969Z,29.37
2019-01-24T00:18:14.205Z,29.17
2019-01-24T00:20:44.017Z,28.80
2019-01-24T00:23:13.669Z,29.53
2019-01-24T00:25:43.673Z,29.60
2019-01-24T00:28:13.310Z,28.97
2019-01-24T00:30:42.988Z,30.60
2019-01-24T00:33:12.615Z,28.63
2019-01-24T00:35:43.914Z,28.73
2019-01-24T00:38:13.756Z,30.00
2019-01-24T00:40:43.381Z,29.30
2019-01-24T00:43:13.110Z,29.93
2019-01-24T00:45:42.821Z,29.07
2019-01-24T00:48:12.557Z,30.10
2019-01-24T00:50:42.281Z,30.07
2019-01-24T00:53:11.906Z,28.27
2019-01-24T00:55:41.621Z,29.33
2019-01-24T00:58:11.359Z,28.30
2019-01-24T01:00:42.048Z,28.37
2019-01-24T01:03:11.686Z,30.20
2019-01-24T01:05:41.299Z,28.83
2019-01-24T01:08:11.137Z,27.93
2019-01-24T01:10:41.756Z,27.33
2019-01-24T01:13:12.494Z,29.27
2019-01-24T01:15:42.205Z,29.43
2019-01-24T01:18:12.086Z,27.97
2019-01-24T01:20:41.793Z,28.70
2019-01-24T01:23:11.498Z,28.73
2019-01-24T01:25:41.101Z,29.17
2019-01-24T01:28:10.909Z,29.40
2019-01-24T01:30:40.677Z,29.33
2019-01-24T01:33:10.294Z,28.43
2019-01-24T01:35:40.151Z,27.80
2019-01-24T01:38:09.998Z,27.57
2019-01-24T01:40:41.420Z,29.03
2019-01-24T01:43:11.190Z,28.93
2019-01-24T01:45:40.797Z,28.57
2019-01-24T01:48:10.434Z,27.30
2019-01-24T01:50:40.314Z,29.40
2019-01-24T01:53:10.658Z,29.07
2019-01-24T01:55:40.278Z,28.23
2019-01-24T01:58:10.517Z,30.23
2019-01-24T02:00:40.265Z,29.33
2019-01-24T02:03:10.038Z,29.33
2019-01-24T02:05:39.737Z,26.97
2019-01-24T02:08:09.350Z,27.00
2019-01-24T02:10:38.994Z,30.07
2019-01-24T02:13:08.599Z,26.77
2019-01-24T02:15:38.241Z,28.27
2019-01-24T02:18:07.982Z,28.90
2019-01-24T02:20:37.613Z,28.73
2019-01-24T02:23:07.231Z,29.33
2019-01-24T02:25:37.329Z,29.70
2019-01-24T02:28:06.934Z,30.10
2019-01-24T02:30:36.655Z,28.73
2019-01-24T02:33:06.401Z,28.30
2019-01-24T02:35:36.230Z,29.07
2019-01-24T02:38:05.911Z,29.33
2019-01-24T02:40:35.546Z,29.27
2019-01-24T02:43:05.357Z,28.03
2019-01-24T02:45:35.137Z,26.33
2019-01-24T02:48:05.219Z,27.30
2019-01-24T02:50:35.134Z,27.60
2019-01-24T02:53:05.222Z,28.30
2019-01-24T02:55:34.838Z,26.77
2019-01-24T02:58:04.916Z,28.87
2019-01-24T03:00:34.546Z,27.53
2019-01-24T03:03:04.303Z,28.97
2019-01-24T03:05:34.009Z,28.97
2019-01-24T03:08:03.613Z,29.63
2019-01-24T03:10:33.317Z,30.03
2019-01-24T03:13:02.934Z,29.00
2019-01-24T03:15:32.677Z,28.63
2019-01-24T03:18:02.366Z,28.80
2019-01-24T03:20:32.006Z,29.63
2019-01-24T03:23:01.610Z,28.40
2019-01-24T03:25:31.448Z,28.93
2019-01-24T03:28:01.270Z,28.40
2019-01-24T03:30:31.009Z,28.67
2019-01-24T03:33:01.527Z,27.87
2019-01-24T03:35:31.262Z,28.40
2019-01-24T03:38:00.871Z,28.87
2019-01-24T03:40:30.499Z,28.13
2019-01-24T03:43:00.107Z,29.50
2019-01-24T03:45:29.841Z,28.27
2019-01-24T03:47:59.445Z,28.70
2019-01-24T03:50:29.386Z,28.70
2019-01-24T03:52:58.994Z,28.00
2019-01-24T03:55:28.794Z,26.70
2019-01-24T03:57:58.705Z,27.20
2019-01-24T04:00:28.352Z,29.33
2019-01-24T04:02:57.963Z,29.27
2019-01-24T04:05:27.596Z,28.57
2019-01-24T04:07:57.332Z,28.10
2019-01-24T04:10:27.050Z,29.17
2019-01-24T04:12:56.881Z,27.83
2019-01-24T04:15:26.736Z,27.47
2019-01-24T04:17:56.531Z,27.73
2019-01-24T04:20:26.238Z,27.67
2019-01-24T04:22:56.074Z,27.67
2019-01-24T04:25:25.886Z,27.83
2019-01-24T04:27:55.524Z,27.43
2019-01-24T04:30:25.374Z,28.47
2019-01-24T04:32:55.103Z,29.17
2019-01-24T04:35:24.721Z,30.10
2019-01-24T04:37:54.445Z,29.50
2019-01-24T04:40:24.053Z,28.43
2019-01-24T04:42:53.689Z,27.70
2019-01-24T04:45:23.302Z,28.87
2019-01-24T04:47:53.045Z,29.07
2019-01-24T04:50:22.772Z,28.70
2019-01-24T04:52:52.405Z,29.67
2019-01-24T04:55:22.031Z,28.73
2019-01-24T04:57:51.657Z,28.53
2019-01-24T05:00:27.526Z,29.03
2019-01-24T05:02:57.241Z,28.10
2019-01-24T05:05:28.011Z,30.57
2019-01-24T05:07:58.126Z,30.33
2019-01-24T05:10:27.805Z,29.17
2019-01-24T05:12:57.440Z,29.57
2019-01-24T05:15:27.253Z,30.07
2019-01-24T05:17:56.882Z,28.60
2019-01-24T05:20:26.698Z,29.10
2019-01-24T05:22:56.349Z,30.63
2019-01-24T05:25:25.958Z,29.17
2019-01-24T05:27:55.630Z,28.33
2019-01-24T05:30:26.582Z,30.27
2019-01-24T05:32:56.286Z,28.90
2019-01-24T05:35:26.178Z,28.70
2019-01-24T05:37:55.798Z,30.33
2019-01-24T05:40:25.518Z,28.10
2019-01-24T05:42:55.219Z,27.70
2019-01-24T05:45:24.950Z,27.77
2019-01-24T05:47:54.565Z,27.30
2019-01-24T05:50:24.544Z,27.37
2019-01-24T05:52:54.313Z,27.00
2019-01-24T05:55:24.102Z,30.03
2019-01-24T05:57:53.738Z,29.23
2019-01-24T06:00:27.983Z,30.23
2019-01-24T06:02:57.601Z,28.33
2019-01-24T06:05:27.833Z,28.40
2019-01-24T06:07:57.514Z,28.07
2019-01-24T06:10:27.166Z,30.37
2019-01-24T06:12:56.778Z,30.10
2019-01-24T06:15:26.510Z,30.93
2019-01-24T06:17:56.146Z,28.90
2019-01-24T06:20:25.859Z,31.40
2019-01-24T06:22:56.120Z,29.40
2019-01-24T06:25:25.950Z,28.43
2019-01-24T06:27:55.655Z,28.50
2019-01-24T06:30:25.336Z,29.33
2019-01-24T06:32:54.973Z,29.57
2019-01-24T06:35:24.581Z,28.83
2019-01-24T06:37:54.296Z,30.20
2019-01-24T06:40:23.910Z,29.80
2019-01-24T06:42:53.539Z,29.27
2019-01-24T06:45:23.888Z,28.30
2019-01-24T06:47:53.533Z,27.10
2019-01-24T06:50:23.267Z,28.93
2019-01-24T06:52:52.949Z,28.37
2019-01-24T06:55:27.702Z,29.43
2019-01-24T06:57:57.415Z,28.53
2019-01-24T07:00:27.017Z,26.40
2019-01-24T07:02:56.733Z,29.23
2019-01-24T07:05:26.514Z,29.10
2019-01-24T07:07:56.170Z,30.73
2019-01-24T07:10:26.157Z,31.03
2019-01-24T07:12:55.787Z,29.73
2019-01-24T07:15:25.866Z,30.87
2019-01-24T07:17:55.477Z,28.83
2019-01-24T07:20:25.326Z,27.70
2019-01-24T07:22:54.989Z,26.83
2019-01-24T07:25:26.965Z,28.00
2019-01-24T07:27:56.633Z,28.40
2019-01-24T07:30:26.493Z,28.07
2019-01-24T07:32:56.109Z,28.27
2019-01-24T07:35:26.042Z,27.07
2019-01-24T07:37:55.649Z,28.10
2019-01-24T07:40:25.279Z,29.40
2019-01-24T07:42:54.894Z,29.47
2019-01-24T07:45:33.561Z,27.03
2019-01-24T07:48:03.277Z,27.27
2019-01-24T07:50:33.655Z,28.60
2019-01-24T07:53:03.366Z,27.67
2019-01-24T07:55:33.091Z,28.23
2019-01-24T07:58:02.714Z,29.57
2019-01-24T08:00:32.346Z,29.53
2019-01-24T08:03:01.970Z,29.20
2019-01-24T08:05:31.770Z,29.20
2019-01-24T08:08:02.887Z,29.17
2019-01-24T08:10:32.581Z,28.90
2019-01-24T08:13:02.572Z,27.87
2019-01-24T08:15:32.503Z,29.83
2019-01-24T08:18:02.122Z,29.27
2019-01-24T08:20:31.761Z,29.63
2019-01-24T08:23:01.379Z,30.47
2019-01-24T08:25:31.024Z,28.37
2019-01-24T08:28:00.632Z,29.17
2019-01-24T08:30:32.074Z,29.63
2019-01-24T08:33:01.787Z,28.57
2019-01-24T08:35:31.501Z,28.93
2019-01-24T08:38:01.251Z,27.90
2019-01-24T08:40:31.069Z,29.27
2019-01-24T08:43:00.682Z,30.03
2019-01-24T08:45:30.315Z,29.67
2019-01-24T08:48:00.029Z,29.63
2019-01-24T08:50:29.730Z,30.33
2019-01-24T08:52:59.442Z,30.37
2019-01-24T08:55:39.272Z,30.50
2019-01-24T08:58:08.886Z,32.00
2019-01-24T09:00:38.518Z,30.67
2019-01-24T09:03:08.306Z,29.07
2019-01-24T09:05:38.010Z,30.23
2019-01-24T09:08:07.760Z,30.73
2019-01-24T09:10:38.364Z,30.57
2019-01-24T09:13:08.055Z,29.30
2019-01-24T09:15:38.059Z,28.97
2019-01-24T09:18:08.311Z,31.23
2019-01-24T09:20:38.130Z,30.70
2019-01-24T09:23:07.909Z,29.87
2019-01-24T09:25:37.686Z,29.80
2019-01-24T09:28:07.422Z,31.40
2019-01-24T09:30:37.061Z,29.33
2019-01-24T09:33:06.688Z,32.23
2019-01-24T09:35:36.483Z,28.97
2019-01-24T09:38:06.234Z,30.10
2019-01-24T09:40:35.865Z,30.53
2019-01-24T09:43:05.545Z,29.63
2019-01-24T09:45:35.295Z,31.83
2019-01-24T09:48:05.938Z,35.20
2019-01-24T09:50:37.174Z,31.23
2019-01-24T09:53:08.064Z,32.67
2019-01-24T09:55:39.299Z,33.37
2019-01-24T09:58:09.087Z,31.20
2019-01-24T10:00:38.786Z,31.07
2019-01-24T10:03:08.600Z,32.97
2019-01-24T10:05:38.233Z,31.67
2019-01-24T10:08:08.007Z,31.70
2019-01-24T10:10:37.618Z,32.80
2019-01-24T10:13:07.396Z,31.60
2019-01-24T10:15:37.171Z,30.17
2019-01-24T10:18:07.043Z,31.63
2019-01-24T10:20:37.954Z,32.20
2019-01-24T10:23:07.650Z,33.30
2019-01-24T10:25:37.809Z,32.37
2019-01-24T10:28:07.582Z,30.43
2019-01-24T10:30:42.738Z,31.77
2019-01-24T10:33:08.617Z,31.47
2019-01-24T10:35:38.367Z,32.80
2019-01-24T10:38:08.066Z,32.10
2019-01-24T10:40:37.744Z,33.33
2019-01-24T10:43:08.040Z,36.33
2019-01-24T10:45:37.741Z,33.83
2019-01-24T10:48:07.517Z,33.10
2019-01-24T10:50:37.434Z,32.10
2019-01-24T10:53:07.749Z,32.45
2019-01-24T10:55:37.350Z,29.73
2019-01-24T10:58:07.419Z,30.80
2019-01-24T11:00:39.574Z,31.37
2019-01-24T11:03:11.211Z,30.33
2019-01-24T11:05:40.914Z,29.70
2019-01-24T11:08:10.965Z,38.63
2019-01-24T11:10:41.379Z,32.75
2019-01-24T11:13:11.001Z,29.80
2019-01-24T11:15:41.850Z,29.70
2019-01-24T11:18:11.551Z,28.03
2019-01-24T11:20:41.261Z,29.17
2019-01-24T11:23:11.471Z,30.97
2019-01-24T11:25:41.726Z,28.07
2019-01-24T11:28:11.418Z,28.07
2019-01-24T11:30:41.770Z,28.85
2019-01-24T11:33:11.574Z,28.87
2019-01-24T11:35:41.426Z,27.50
2019-01-24T11:38:11.242Z,27.63
2019-01-24T11:40:40.851Z,29.83
2019-01-24T11:43:11.041Z,26.87
2019-01-24T11:45:41.860Z,29.77
2019-01-24T11:48:12.139Z,26.30
2019-01-24T11:50:41.810Z,25.73
2019-01-24T11:53:11.443Z,28.73
2019-01-24T11:55:41.153Z,28.47
2019-01-24T11:58:11.373Z,30.45
2019-01-24T12:00:42.790Z,30.23
2019-01-24T12:03:13.016Z,28.75
2019-01-24T12:05:42.630Z,30.17
2019-01-24T12:08:12.363Z,29.20
2019-01-24T12:10:43.826Z,28.23
2019-01-24T12:13:14.500Z,25.10
2019-01-24T12:15:44.102Z,25.87
2019-01-24T12:18:13.739Z,26.10
2019-01-24T12:20:43.460Z,27.43
2019-01-24T12:23:13.111Z,29.40
2019-01-24T12:25:43.267Z,28.23
2019-01-24T12:28:13.690Z,28.97
2019-01-24T12:30:43.977Z,29.00
2019-01-24T12:33:14.178Z,26.80
2019-01-24T12:35:43.855Z,26.10
2019-01-24T12:38:13.563Z,26.33
2019-01-24T12:40:43.177Z,24.47
2019-01-24T12:43:12.814Z,24.67
2019-01-24T12:45:42.583Z,24.83
2019-01-24T12:48:12.230Z,24.87
2019-01-24T12:50:41.842Z,25.02
2019-01-24T12:53:14.446Z,24.97
2019-01-24T12:55:44.081Z,28.37
2019-01-24T12:58:13.717Z,28.43
2019-01-24T13:00:44.194Z,28.93
2019-01-24T13:03:13.894Z,29.40
2019-01-24T13:05:43.520Z,29.27
2019-01-24T13:08:13.270Z,28.67
2019-01-24T13:10:42.886Z,28.40
2019-01-24T13:13:14.254Z,28.03
2019-01-24T13:15:43.947Z,25.93
2019-01-24T13:18:13.598Z,26.27
2019-01-24T13:20:43.202Z,28.53
2019-01-24T13:23:12.955Z,26.20
2019-01-24T13:25:42.567Z,28.53
2019-01-24T13:28:12.201Z,26.80
2019-01-24T13:30:41.848Z,28.10
2019-01-24T13:33:12.137Z,29.15
2019-01-24T13:35:41.745Z,33.13
2019-01-24T13:38:11.974Z,30.50
2019-01-24T13:40:41.690Z,29.87
2019-01-24T13:43:11.321Z,30.80
2019-01-24T13:45:41.583Z,28.92
2019-01-24T13:48:11.790Z,30.17
2019-01-24T13:50:41.474Z,29.67
2019-01-24T13:53:11.174Z,28.17
2019-01-24T13:55:40.804Z,29.57
2019-01-24T13:58:10.511Z,26.43
2019-01-24T14:00:40.185Z,29.73
2019-01-24T14:03:19.106Z,30.10
2019-01-24T14:05:48.727Z,29.40
2019-01-24T14:08:18.966Z,29.43
2019-01-24T14:10:48.684Z,28.87
2019-01-24T14:13:18.343Z,28.50
2019-01-24T14:15:47.954Z,27.80
2019-01-24T14:18:17.766Z,28.40
2019-01-24T14:20:47.578Z,27.20
2019-01-24T14:23:17.250Z,28.03
2019-01-24T14:25:46.894Z,26.23
2019-01-24T14:28:18.141Z,27.77
2019-01-24T14:30:47.777Z,25.03
2019-01-24T14:33:17.391Z,26.47
2019-01-24T14:35:47.100Z,27.40
2019-01-24T14:38:16.710Z,30.10
2019-01-24T14:40:46.418Z,28.37
2019-01-24T14:43:16.132Z,26.97
2019-01-24T14:45:45.765Z,27.90
2019-01-24T14:48:15.446Z,29.03
2019-01-24T14:50:45.178Z,29.57
2019-01-24T14:53:14.798Z,30.70
2019-01-24T14:55:44.521Z,30.50
2019-01-24T14:58:14.153Z,32.40
2019-01-24T15:00:46.858Z,30.03
2019-01-24T15:03:16.480Z,30.43
2019-01-24T15:05:46.210Z,28.60
2019-01-24T15:08:16.818Z,28.23
2019-01-24T15:10:46.463Z,29.10
2019-01-24T15:13:16.314Z,27.53
2019-01-24T15:15:46.522Z,28.87
2019-01-24T15:18:16.129Z,28.10
2019-01-24T15:20:45.787Z,29.77
2019-01-24T15:23:15.394Z,27.33
2019-01-24T15:25:45.034Z,27.90
2019-01-24T15:28:14.660Z,28.77
2019-01-24T15:30:44.369Z,29.13
2019-01-24T15:33:14.146Z,26.40
2019-01-24T15:35:43.877Z,27.13
2019-01-24T15:38:13.515Z,26.20
2019-01-24T15:40:43.228Z,26.23
2019-01-24T15:43:12.850Z,26.67
2019-01-24T15:45:42.554Z,27.10
2019-01-24T15:48:12.311Z,25.30
2019-01-24T15:50:42.112Z,29.17
2019-01-24T15:53:11.794Z,28.17
2019-01-24T15:55:41.453Z,26.70
2019-01-24T15:58:11.066Z,27.57
2019-01-24T16:00:40.713Z,27.40
2019-01-24T16:03:10.408Z,26.97
2019-01-24T16:05:40.153Z,29.40
2019-01-24T16:08:09.768Z,28.70
2019-01-24T16:10:39.403Z,30.80
2019-01-24T16:13:09.029Z,29.63
2019-01-24T16:15:38.725Z,30.63
2019-01-24T16:18:09.074Z,31.40
2019-01-24T16:20:39.156Z,31.07
2019-01-24T16:23:08.841Z,32.00
2019-01-24T16:25:38.539Z,31.90
2019-01-24T16:28:08.247Z,33.73
2019-01-24T16:30:38.097Z,32.80
2019-01-24T16:33:09.062Z,31.40
2019-01-24T16:35:38.737Z,32.43
2019-01-24T16:38:09.698Z,36.23
2019-01-24T16:40:39.437Z,38.53
2019-01-24T16:43:09.278Z,36.70
2019-01-24T16:45:39.026Z,34.20
2019-01-24T16:48:08.770Z,33.80
2019-01-24T16:50:38.382Z,31.93
2019-01-24T16:53:08.620Z,33.00
2019-01-24T16:55:38.363Z,30.57
2019-01-24T16:58:08.073Z,35.67
2019-01-24T17:00:43.978Z,33.87
2019-01-24T17:03:13.628Z,38.50
2019-01-24T17:05:44.131Z,33.07
2019-01-24T17:08:16.650Z,33.57
2019-01-24T17:10:45.087Z,32.37
2019-01-24T17:13:14.770Z,32.53
2019-01-24T17:15:44.460Z,34.33
2019-01-24T17:18:14.095Z,33.63
2019-01-24T17:20:47.286Z,33.00
2019-01-24T17:23:16.922Z,33.77
2019-01-24T17:25:47.754Z,33.30
2019-01-24T17:28:17.397Z,33.20
2019-01-24T17:30:47.257Z,34.27
2019-01-24T17:33:16.896Z,32.47
2019-01-24T17:35:46.518Z,33.03
2019-01-24T17:38:16.164Z,31.80
2019-01-24T17:40:45.819Z,31.17
2019-01-24T17:43:15.533Z,33.20
2019-01-24T17:45:45.151Z,34.03
2019-01-24T17:48:14.786Z,32.43
2019-01-24T17:50:46.138Z,34.67
2019-01-24T17:53:15.769Z,33.80
2019-01-24T17:55:46.251Z,43.77
2019-01-24T17:58:15.898Z,39.77
2019-01-24T18:00:47.153Z,35.53
2019-01-24T18:03:17.022Z,34.43
2019-01-24T18:05:46.641Z,33.17
2019-01-24T18:08:16.338Z,32.00
2019-01-24T18:10:47.570Z,33.07
2019-01-24T18:13:17.194Z,34.57
2019-01-24T18:15:46.943Z,34.00
2019-01-24T18:18:18.289Z,33.50
2019-01-24T18:20:48.131Z,32.17
2019-01-24T18:23:17.771Z,34.80
2019-01-24T18:25:47.470Z,34.67
2019-01-24T18:28:17.910Z,33.30
2019-01-24T18:30:53.226Z,32.13
2019-01-24T18:33:22.929Z,33.37
2019-01-24T18:35:52.547Z,32.60
2019-01-24T18:38:22.373Z,33.40
2019-01-24T18:40:58.829Z,33.47
2019-01-24T18:43:28.472Z,34.47
2019-01-24T18:45:58.162Z,33.80
2019-01-24T18:48:27.988Z,33.80
2019-01-24T18:50:57.730Z,33.10
2019-01-24T18:53:32.957Z,32.87
2019-01-24T18:56:02.570Z,33.10
2019-01-24T18:58:32.218Z,33.93
2019-01-24T19:01:01.826Z,34.30
2019-01-24T19:03:31.469Z,32.63
2019-01-24T19:06:01.273Z,33.80
2019-01-24T19:08:30.958Z,33.23
2019-01-24T19:11:00.734Z,32.83
2019-01-24T19:13:30.390Z,35.03
2019-01-24T19:16:00.217Z,34.63
2019-01-24T19:18:30.059Z,34.27
2019-01-24T19:20:59.678Z,32.07
2019-01-24T19:23:29.277Z,33.57
2019-01-24T19:25:59.087Z,31.03
2019-01-24T19:28:28.769Z,33.47
2019-01-24T19:30:58.465Z,32.23
2019-01-24T19:33:28.074Z,34.40
2019-01-24T19:36:00.391Z,32.97
2019-01-24T19:38:30.145Z,30.70
2019-01-24T19:40:59.775Z,33.50
2019-01-24T19:43:29.487Z,32.77
2019-01-24T19:45:59.130Z,32.27
2019-01-24T19:48:28.819Z,33.90
2019-01-24T19:50:58.618Z,34.87
2019-01-24T19:53:28.225Z,36.23
2019-01-24T19:55:58.767Z,35.43
2019-01-24T19:58:28.388Z,32.87
2019-01-24T20:00:58.131Z,33.43
2019-01-24T20:03:27.742Z,34.83
2019-01-24T20:05:57.384Z,35.07
2019-01-24T20:08:27.061Z,32.40
2019-01-24T20:10:56.709Z,32.07
2019-01-24T20:13:26.321Z,36.30
2019-01-24T20:15:56.058Z,33.03
2019-01-24T20:18:25.683Z,32.10
2019-01-24T20:20:55.406Z,32.83
2019-01-24T20:23:25.018Z,34.87
2019-01-24T20:25:54.663Z,32.20
2019-01-24T20:28:24.345Z,34.57
2019-01-24T20:30:53.978Z,33.17
2019-01-24T20:33:23.614Z,31.73
2019-01-24T20:35:54.406Z,31.37
2019-01-24T20:38:24.091Z,32.93
2019-01-24T20:40:54.243Z,32.57
2019-01-24T20:43:24.192Z,31.53
2019-01-24T20:45:54.206Z,30.87
2019-01-24T20:48:24.049Z,33.33
2019-01-24T20:50:55.046Z,31.97
2019-01-24T20:53:24.925Z,30.53
2019-01-24T20:55:54.734Z,33.73
2019-01-24T20:58:24.362Z,33.83
2019-01-24T21:00:54.265Z,33.43
2019-01-24T21:03:23.846Z,31.43
2019-01-24T21:05:53.493Z,32.47
2019-01-24T21:08:23.145Z,33.60
2019-01-24T21:10:52.755Z,32.97
2019-01-24T21:13:22.419Z,32.27
2019-01-24T21:15:52.026Z,34.43
2019-01-24T21:18:21.669Z,31.00
2019-01-24T21:20:51.286Z,30.60
2019-01-24T21:23:21.222Z,30.70
2019-01-24T21:25:50.842Z,29.27
2019-01-24T21:28:20.487Z,28.97
2019-01-24T21:30:50.170Z,29.63
2019-01-24T21:33:19.803Z,31.50
2019-01-24T21:35:49.437Z,31.33
2019-01-24T21:38:19.309Z,30.57
2019-01-24T21:40:48.922Z,31.53
2019-01-24T21:43:19.605Z,32.27
2019-01-24T21:45:49.431Z,29.40
2019-01-24T21:48:19.899Z,31.07
2019-01-24T21:50:49.673Z,30.83
2019-01-24T21:53:19.376Z,33.20
2019-01-24T21:55:49.100Z,31.80
2019-01-24T21:58:18.735Z,30.63
2019-01-24T22:00:48.350Z,32.20
2019-01-24T22:03:17.982Z,28.83
2019-01-24T22:05:47.599Z,30.70
2019-01-24T22:08:17.333Z,29.10
2019-01-24T22:10:46.946Z,30.73
2019-01-24T22:13:16.689Z,30.47
2019-01-24T22:15:46.372Z,32.90
2019-01-24T22:18:16.115Z,31.67
2019-01-24T22:20:47.367Z,31.00
2019-01-24T22:23:17.201Z,30.90
2019-01-24T22:25:46.818Z,31.37
2019-01-24T22:28:16.455Z,33.63
2019-01-24T22:30:47.802Z,31.73
2019-01-24T22:33:17.438Z,29.73
2019-01-24T22:35:47.122Z,32.40
2019-01-24T22:38:16.759Z,30.90
2019-01-24T22:40:46.362Z,32.10
2019-01-24T22:43:16.006Z,30.03
2019-01-24T22:45:45.622Z,30.90
2019-01-24T22:48:16.270Z,30.50
2019-01-24T22:50:45.886Z,29.93
2019-01-24T22:53:15.532Z,29.10
2019-01-24T22:55:45.150Z,30.13
2019-01-24T22:58:14.781Z,28.87
2019-01-24T23:00:53.030Z,29.07
2019-01-24T23:03:25.619Z,29.90
2019-01-24T23:05:56.726Z,29.60
2019-01-24T23:08:26.361Z,27.80
2019-01-24T23:10:56.038Z,28.50
2019-01-24T23:13:25.669Z,28.53
2019-01-24T23:15:55.449Z,27.77
2019-01-24T23:18:25.605Z,26.90
2019-01-24T23:20:55.213Z,28.73
2019-01-24T23:23:25.017Z,28.60
2019-01-24T23:25:54.739Z,28.10
2019-01-24T23:28:24.429Z,30.37
2019-01-24T23:30:54.065Z,29.83
2019-01-24T23:33:23.889Z,27.93
2019-01-24T23:35:53.521Z,28.43
2019-01-24T23:38:23.210Z,29.67
2019-01-24T23:40:52.854Z,27.77
2019-01-24T23:43:22.499Z,28.33
2019-01-24T23:45:52.301Z,26.93
2019-01-24T23:48:21.875Z,29.20
2019-01-24T23:50:51.810Z,27.07
2019-01-24T23:53:21.414Z,29.37
2019-01-24T23:55:51.158Z,27.17
2019-01-24T23:58:20.774Z,26.97
